sensor_id;sensor_type;location;lat;lon;timestamp;pressure;altitude;pressure_sealevel;temperature;humidity
15604;BME280;7902;49.042;9.092;2023-06-26T00:00:41;98995.91;;;26.16;43.42
15604;BME280;7902;49.042;9.092;2023-06-26T00:03:07;98979.13;;;26.14;43.71
15604;BME280;7902;49.042;9.092;2023-06-26T00:05:33;98982.88;;;26.13;43.53
15604;BME280;7902;49.042;9.092;2023-06-26T00:08:00;98983.47;;;26.15;43.37
15604;BME280;7902;49.042;9.092;2023-06-26T00:10:27;98993.47;;;26.08;43.65
15604;BME280;7902;49.042;9.092;2023-06-26T00:12:53;98994.50;;;26.07;43.85
15604;BME280;7902;49.042;9.092;2023-06-26T00:15:19;98995.13;;;26.02;43.57
15604;BME280;7902;49.042;9.092;2023-06-26T00:17:45;98984.19;;;25.91;43.77
15604;BME280;7902;49.042;9.092;2023-06-26T00:20:11;98990.41;;;25.91;43.45
15604;BME280;7902;49.042;9.092;2023-06-26T00:22:37;98990.84;;;25.88;43.13
15604;BME280;7902;49.042;9.092;2023-06-26T00:25:07;98985.00;;;25.91;42.59
15604;BME280;7902;49.042;9.092;2023-06-26T00:27:33;98992.50;;;25.83;42.54
15604;BME280;7902;49.042;9.092;2023-06-26T00:29:58;98983.63;;;25.75;42.53
15604;BME280;7902;49.042;9.092;2023-06-26T00:32:24;98981.09;;;25.81;42.36
15604;BME280;7902;49.042;9.092;2023-06-26T00:34:50;98980.50;;;25.78;42.08
15604;BME280;7902;49.042;9.092;2023-06-26T00:37:16;98978.84;;;25.77;42.05
15604;BME280;7902;49.042;9.092;2023-06-26T00:39:42;98977.38;;;25.82;42.21
15604;BME280;7902;49.042;9.092;2023-06-26T00:42:08;98983.44;;;25.70;42.43
15604;BME280;7902;49.042;9.092;2023-06-26T00:44:34;98982.38;;;25.71;42.34
15604;BME280;7902;49.042;9.092;2023-06-26T00:47:00;98980.94;;;25.69;42.61
15604;BME280;7902;49.042;9.092;2023-06-26T00:49:27;98986.53;;;25.67;42.67
15604;BME280;7902;49.042;9.092;2023-06-26T00:51:53;98981.78;;;25.50;43.38
15604;BME280;7902;49.042;9.092;2023-06-26T00:54:20;98979.28;;;25.48;43.54
15604;BME280;7902;49.042;9.092;2023-06-26T00:56:47;98974.34;;;25.45;43.10
15604;BME280;7902;49.042;9.092;2023-06-26T00:59:14;98969.81;;;25.46;43.13
15604;BME280;7902;49.042;9.092;2023-06-26T01:01:40;98965.88;;;25.42;43.14
15604;BME280;7902;49.042;9.092;2023-06-26T01:04:06;98961.09;;;25.44;42.95
15604;BME280;7902;49.042;9.092;2023-06-26T01:06:33;98968.53;;;25.48;42.73
15604;BME280;7902;49.042;9.092;2023-06-26T01:09:02;98962.34;;;25.48;42.48
15604;BME280;7902;49.042;9.092;2023-06-26T01:11:28;98966.09;;;25.47;42.63
15604;BME280;7902;49.042;9.092;2023-06-26T01:13:56;98964.63;;;25.44;42.56
15604;BME280;7902;49.042;9.092;2023-06-26T01:16:24;98964.03;;;25.29;42.92
15604;BME280;7902;49.042;9.092;2023-06-26T01:18:50;98964.44;;;25.26;43.05
15604;BME280;7902;49.042;9.092;2023-06-26T01:21:17;98964.88;;;25.23;42.81
15604;BME280;7902;49.042;9.092;2023-06-26T01:24:07;98959.91;;;25.20;43.01
15604;BME280;7902;49.042;9.092;2023-06-26T01:26:36;98962.38;;;25.21;42.96
15604;BME280;7902;49.042;9.092;2023-06-26T01:29:03;98959.28;;;25.18;42.95
15604;BME280;7902;49.042;9.092;2023-06-26T01:31:30;98954.13;;;25.23;42.64
15604;BME280;7902;49.042;9.092;2023-06-26T01:33:58;98948.31;;;25.26;42.39
15604;BME280;7902;49.042;9.092;2023-06-26T01:36:25;98947.91;;;25.16;42.51
15604;BME280;7902;49.042;9.092;2023-06-26T01:38:51;98945.88;;;25.05;42.77
15604;BME280;7902;49.042;9.092;2023-06-26T01:41:18;98953.72;;;25.06;42.80
15604;BME280;7902;49.042;9.092;2023-06-26T01:51:41;98938.41;;;25.07;42.56
15604;BME280;7902;49.042;9.092;2023-06-26T01:54:10;98936.34;;;25.15;42.22
15604;BME280;7902;49.042;9.092;2023-06-26T01:56:39;98939.84;;;25.16;42.06
15604;BME280;7902;49.042;9.092;2023-06-26T01:59:06;98943.16;;;25.24;41.96
15604;BME280;7902;49.042;9.092;2023-06-26T02:01:33;98939.03;;;25.22;41.89
15604;BME280;7902;49.042;9.092;2023-06-26T02:03:59;98938.41;;;25.20;41.57
15604;BME280;7902;49.042;9.092;2023-06-26T02:06:25;98939.25;;;25.14;42.06
15604;BME280;7902;49.042;9.092;2023-06-26T02:08:51;98936.56;;;25.14;42.07
15604;BME280;7902;49.042;9.092;2023-06-26T02:11:17;98943.56;;;25.15;41.96
15604;BME280;7902;49.042;9.092;2023-06-26T02:13:43;98938.63;;;25.05;42.30
15604;BME280;7902;49.042;9.092;2023-06-26T02:16:09;98944.19;;;24.97;42.05
15604;BME280;7902;49.042;9.092;2023-06-26T02:18:35;98942.16;;;24.99;41.93
15604;BME280;7902;49.042;9.092;2023-06-26T02:21:03;98934.50;;;24.96;42.01
15604;BME280;7902;49.042;9.092;2023-06-26T02:23:29;98942.75;;;24.88;42.46
15604;BME280;7902;49.042;9.092;2023-06-26T02:25:55;98931.59;;;24.91;42.09
15604;BME280;7902;49.042;9.092;2023-06-26T02:28:21;98933.25;;;24.85;41.85
15604;BME280;7902;49.042;9.092;2023-06-26T02:30:47;98937.19;;;24.89;42.17
15604;BME280;7902;49.042;9.092;2023-06-26T02:33:12;98938.81;;;24.84;42.10
15604;BME280;7902;49.042;9.092;2023-06-26T02:35:38;98942.13;;;24.86;41.84
15604;BME280;7902;49.042;9.092;2023-06-26T02:38:04;98945.84;;;24.85;41.98
15604;BME280;7902;49.042;9.092;2023-06-26T02:40:30;98946.66;;;24.79;42.22
15604;BME280;7902;49.042;9.092;2023-06-26T02:42:56;98941.28;;;24.79;42.20
15604;BME280;7902;49.042;9.092;2023-06-26T02:45:22;98942.72;;;24.75;42.36
15604;BME280;7902;49.042;9.092;2023-06-26T02:47:48;98945.44;;;24.88;41.96
15604;BME280;7902;49.042;9.092;2023-06-26T02:50:14;98943.16;;;24.91;41.82
15604;BME280;7902;49.042;9.092;2023-06-26T02:52:39;98930.94;;;24.82;41.78
15604;BME280;7902;49.042;9.092;2023-06-26T02:55:06;98938.16;;;24.82;42.24
15604;BME280;7902;49.042;9.092;2023-06-26T02:57:31;98934.03;;;24.73;42.55
15604;BME280;7902;49.042;9.092;2023-06-26T02:59:57;98940.44;;;24.65;42.96
15604;BME280;7902;49.042;9.092;2023-06-26T03:02:23;98933.63;;;24.56;43.44
15604;BME280;7902;49.042;9.092;2023-06-26T03:04:49;98934.84;;;24.47;43.59
15604;BME280;7902;49.042;9.092;2023-06-26T03:07:15;98952.56;;;24.35;44.27
15604;BME280;7902;49.042;9.092;2023-06-26T03:09:41;98943.09;;;24.39;43.61
15604;BME280;7902;49.042;9.092;2023-06-26T03:12:08;98942.28;;;24.38;43.92
15604;BME280;7902;49.042;9.092;2023-06-26T03:14:34;98949.66;;;24.30;44.12
15604;BME280;7902;49.042;9.092;2023-06-26T03:17:00;98955.25;;;24.28;44.18
15604;BME280;7902;49.042;9.092;2023-06-26T03:19:29;98951.28;;;24.18;44.37
15604;BME280;7902;49.042;9.092;2023-06-26T03:21:55;98946.19;;;24.29;44.40
15604;BME280;7902;49.042;9.092;2023-06-26T03:24:21;98937.91;;;24.31;44.24
15604;BME280;7902;49.042;9.092;2023-06-26T03:26:47;98946.19;;;24.29;44.00
15604;BME280;7902;49.042;9.092;2023-06-26T03:29:13;98949.47;;;24.25;44.28
15604;BME280;7902;49.042;9.092;2023-06-26T03:31:39;98948.63;;;24.31;44.06
15604;BME280;7902;49.042;9.092;2023-06-26T03:34:05;98948.25;;;24.34;43.97
15604;BME280;7902;49.042;9.092;2023-06-26T03:36:31;98949.47;;;24.31;43.87
15604;BME280;7902;49.042;9.092;2023-06-26T03:38:57;98951.72;;;24.28;43.98
15604;BME280;7902;49.042;9.092;2023-06-26T03:41:23;98956.47;;;24.26;43.84
15604;BME280;7902;49.042;9.092;2023-06-26T03:43:49;98957.91;;;24.22;43.90
15604;BME280;7902;49.042;9.092;2023-06-26T03:46:15;98956.25;;;24.21;44.25
15604;BME280;7902;49.042;9.092;2023-06-26T03:48:41;98951.94;;;24.20;44.14
15604;BME280;7902;49.042;9.092;2023-06-26T03:51:07;98958.75;;;24.29;43.83
15604;BME280;7902;49.042;9.092;2023-06-26T03:53:33;98963.53;;;24.40;43.74
15604;BME280;7902;49.042;9.092;2023-06-26T03:55:59;98959.81;;;24.41;43.80
15604;BME280;7902;49.042;9.092;2023-06-26T03:58:25;98961.66;;;24.34;43.86
15604;BME280;7902;49.042;9.092;2023-06-26T04:00:51;98954.41;;;24.28;43.79
15604;BME280;7902;49.042;9.092;2023-06-26T04:03:17;98959.78;;;24.28;43.91
15604;BME280;7902;49.042;9.092;2023-06-26T04:05:43;98950.09;;;24.33;44.10
15604;BME280;7902;49.042;9.092;2023-06-26T04:08:09;98951.53;;;24.29;44.05
15604;BME280;7902;49.042;9.092;2023-06-26T04:10:34;98953.00;;;24.38;43.80
15604;BME280;7902;49.042;9.092;2023-06-26T04:13:02;98948.25;;;24.40;44.05
15604;BME280;7902;49.042;9.092;2023-06-26T04:15:28;98955.66;;;24.32;44.25
15604;BME280;7902;49.042;9.092;2023-06-26T04:17:54;98955.66;;;24.32;44.39
15604;BME280;7902;49.042;9.092;2023-06-26T04:20:20;98963.09;;;24.36;44.27
15604;BME280;7902;49.042;9.092;2023-06-26T04:22:45;98961.84;;;24.32;44.57
15604;BME280;7902;49.042;9.092;2023-06-26T04:25:11;98969.09;;;24.38;44.24
15604;BME280;7902;49.042;9.092;2023-06-26T04:27:38;98963.97;;;24.43;44.19
15604;BME280;7902;49.042;9.092;2023-06-26T04:30:04;98965.81;;;24.43;44.24
15604;BME280;7902;49.042;9.092;2023-06-26T04:32:31;98962.91;;;24.38;44.83
15604;BME280;7902;49.042;9.092;2023-06-26T04:34:56;98975.91;;;24.41;44.69
15604;BME280;7902;49.042;9.092;2023-06-26T04:37:22;98968.06;;;24.39;44.51
15604;BME280;7902;49.042;9.092;2023-06-26T04:39:50;98963.94;;;24.37;44.94
15604;BME280;7902;49.042;9.092;2023-06-26T04:42:16;98964.56;;;24.45;44.56
15604;BME280;7902;49.042;9.092;2023-06-26T04:44:42;98959.84;;;24.47;44.81
15604;BME280;7902;49.042;9.092;2023-06-26T04:47:08;98957.53;;;24.44;45.01
15604;BME280;7902;49.042;9.092;2023-06-26T04:49:34;98956.94;;;24.49;44.70
15604;BME280;7902;49.042;9.092;2023-06-26T04:52:00;98957.34;;;24.46;44.78
15604;BME280;7902;49.042;9.092;2023-06-26T04:54:26;98970.34;;;24.42;45.19
15604;BME280;7902;49.042;9.092;2023-06-26T04:56:53;98958.38;;;24.45;45.10
15604;BME280;7902;49.042;9.092;2023-06-26T04:59:19;98969.94;;;24.45;45.29
15604;BME280;7902;49.042;9.092;2023-06-26T05:01:45;98965.00;;;24.56;44.93
15604;BME280;7902;49.042;9.092;2023-06-26T05:04:14;98963.34;;;24.48;45.13
15604;BME280;7902;49.042;9.092;2023-06-26T05:06:43;98963.16;;;24.56;44.73
15604;BME280;7902;49.042;9.092;2023-06-26T05:09:09;98963.38;;;24.61;44.92
15604;BME280;7902;49.042;9.092;2023-06-26T05:11:36;98964.81;;;24.64;44.84
15604;BME280;7902;49.042;9.092;2023-06-26T05:14:02;98960.47;;;24.69;44.59
15604;BME280;7902;49.042;9.092;2023-06-26T05:16:28;98958.22;;;24.79;44.55
15604;BME280;7902;49.042;9.092;2023-06-26T05:18:54;98961.94;;;24.85;44.30
15604;BME280;7902;49.042;9.092;2023-06-26T05:21:20;98972.72;;;24.91;43.95
15604;BME280;7902;49.042;9.092;2023-06-26T05:23:46;98968.19;;;24.99;44.08
15604;BME280;7902;49.042;9.092;2023-06-26T05:26:12;98976.88;;;25.07;43.71
15604;BME280;7902;49.042;9.092;2023-06-26T05:28:39;98970.88;;;25.12;43.77
15604;BME280;7902;49.042;9.092;2023-06-26T05:31:05;98971.06;;;25.17;43.36
15604;BME280;7902;49.042;9.092;2023-06-26T05:33:35;98972.72;;;25.18;43.75
15604;BME280;7902;49.042;9.092;2023-06-26T05:36:03;98976.84;;;25.20;43.68
15604;BME280;7902;49.042;9.092;2023-06-26T05:38:29;98965.69;;;25.30;43.33
15604;BME280;7902;49.042;9.092;2023-06-26T05:40:56;98972.31;;;25.21;43.81
15604;BME280;7902;49.042;9.092;2023-06-26T05:43:22;98970.66;;;25.20;43.61
15604;BME280;7902;49.042;9.092;2023-06-26T05:45:48;98969.81;;;25.32;43.24
15604;BME280;7902;49.042;9.092;2023-06-26T05:48:14;98970.63;;;25.40;42.98
15604;BME280;7902;49.042;9.092;2023-06-26T05:50:41;98973.53;;;25.45;43.19
15604;BME280;7902;49.042;9.092;2023-06-26T05:53:08;98975.16;;;25.52;42.70
15604;BME280;7902;49.042;9.092;2023-06-26T05:55:34;98969.78;;;25.65;42.58
15604;BME280;7902;49.042;9.092;2023-06-26T05:58:01;98970.78;;;25.71;42.83
15604;BME280;7902;49.042;9.092;2023-06-26T06:00:28;98973.94;;;25.61;43.29
15604;BME280;7902;49.042;9.092;2023-06-26T06:02:54;98972.06;;;25.75;42.68
15604;BME280;7902;49.042;9.092;2023-06-26T06:05:21;98981.53;;;25.77;43.08
15604;BME280;7902;49.042;9.092;2023-06-26T06:07:48;98973.03;;;25.81;42.44
15604;BME280;7902;49.042;9.092;2023-06-26T06:10:14;98970.53;;;25.86;42.52
15604;BME280;7902;49.042;9.092;2023-06-26T06:12:40;98968.66;;;25.93;42.62
15604;BME280;7902;49.042;9.092;2023-06-26T06:15:06;98967.19;;;25.97;42.59
15604;BME280;7902;49.042;9.092;2023-06-26T06:17:32;98980.44;;;25.98;43.12
15604;BME280;7902;49.042;9.092;2023-06-26T06:19:58;98965.72;;;26.07;42.18
15604;BME280;7902;49.042;9.092;2023-06-26T06:22:24;98977.69;;;26.11;41.91
15604;BME280;7902;49.042;9.092;2023-06-26T06:24:50;98969.56;;;26.18;41.67
15604;BME280;7902;49.042;9.092;2023-06-26T06:27:16;98978.47;;;26.18;41.74
15604;BME280;7902;49.042;9.092;2023-06-26T06:29:42;98987.38;;;26.19;42.00
15604;BME280;7902;49.042;9.092;2023-06-26T06:32:08;98988.03;;;26.21;41.86
15604;BME280;7902;49.042;9.092;2023-06-26T06:34:34;98984.50;;;26.27;42.31
15604;BME280;7902;49.042;9.092;2023-06-26T06:37:01;98988.59;;;26.36;42.43
15604;BME280;7902;49.042;9.092;2023-06-26T06:39:27;98981.38;;;26.30;42.54
15604;BME280;7902;49.042;9.092;2023-06-26T06:41:53;98984.25;;;26.35;41.71
15604;BME280;7902;49.042;9.092;2023-06-26T06:44:19;98986.50;;;26.38;41.97
15604;BME280;7902;49.042;9.092;2023-06-26T06:46:45;98986.69;;;26.43;42.27
15604;BME280;7902;49.042;9.092;2023-06-26T06:49:10;98982.31;;;26.42;41.75
15604;BME280;7902;49.042;9.092;2023-06-26T06:51:36;98988.53;;;26.43;41.79
15604;BME280;7902;49.042;9.092;2023-06-26T06:54:02;98988.72;;;26.48;42.16
15604;BME280;7902;49.042;9.092;2023-06-26T06:56:28;98980.84;;;26.46;42.09
15604;BME280;7902;49.042;9.092;2023-06-26T06:58:54;98972.09;;;26.57;41.92
15604;BME280;7902;49.042;9.092;2023-06-26T07:01:20;98988.91;;;26.53;42.02
15604;BME280;7902;49.042;9.092;2023-06-26T07:03:46;98984.72;;;26.57;41.65
15604;BME280;7902;49.042;9.092;2023-06-26T07:06:12;98973.31;;;26.61;41.90
15604;BME280;7902;49.042;9.092;2023-06-26T07:08:38;98971.00;;;26.65;41.45
15604;BME280;7902;49.042;9.092;2023-06-26T07:11:04;98973.66;;;26.72;42.01
15604;BME280;7902;49.042;9.092;2023-06-26T07:13:30;98974.69;;;26.71;41.43
15604;BME280;7902;49.042;9.092;2023-06-26T07:15:56;98972.19;;;26.76;40.94
15604;BME280;7902;49.042;9.092;2023-06-26T07:18:21;98976.53;;;26.77;41.20
15604;BME280;7902;49.042;9.092;2023-06-26T07:20:47;98976.25;;;26.85;41.96
15604;BME280;7902;49.042;9.092;2023-06-26T07:23:13;98976.25;;;26.85;41.03
15604;BME280;7902;49.042;9.092;2023-06-26T07:25:39;98971.91;;;26.90;41.93
15604;BME280;7902;49.042;9.092;2023-06-26T07:28:10;98966.31;;;26.92;41.58
15604;BME280;7902;49.042;9.092;2023-06-26T07:30:36;98967.97;;;26.93;40.74
15604;BME280;7902;49.042;9.092;2023-06-26T07:33:02;98967.97;;;26.93;41.08
15604;BME280;7902;49.042;9.092;2023-06-26T07:35:28;98967.97;;;26.93;40.50
15604;BME280;7902;49.042;9.092;2023-06-26T07:37:54;98967.34;;;26.91;40.73
15604;BME280;7902;49.042;9.092;2023-06-26T07:40:20;98973.72;;;26.96;40.43
15604;BME280;7902;49.042;9.092;2023-06-26T07:42:46;98970.81;;;26.98;40.45
15604;BME280;7902;49.042;9.092;2023-06-26T07:45:12;98970.97;;;27.03;40.71
15604;BME280;7902;49.042;9.092;2023-06-26T07:47:38;98970.53;;;27.06;40.73
15604;BME280;7902;49.042;9.092;2023-06-26T07:50:04;98981.25;;;27.13;40.88
15604;BME280;7902;49.042;9.092;2023-06-26T07:52:30;98975.19;;;27.17;40.14
15604;BME280;7902;49.042;9.092;2023-06-26T07:54:57;98974.41;;;27.17;40.40
15604;BME280;7902;49.042;9.092;2023-06-26T07:57:23;98972.94;;;27.14;40.30
15604;BME280;7902;49.042;9.092;2023-06-26T07:59:50;98975.16;;;27.24;40.29
15604;BME280;7902;49.042;9.092;2023-06-26T08:02:16;98969.31;;;27.27;40.86
15604;BME280;7902;49.042;9.092;2023-06-26T08:04:44;98973.16;;;27.37;40.52
15604;BME280;7902;49.042;9.092;2023-06-26T08:07:10;98968.81;;;27.36;40.37
15604;BME280;7902;49.042;9.092;2023-06-26T08:09:36;98977.50;;;27.38;40.39
15604;BME280;7902;49.042;9.092;2023-06-26T08:12:02;98970.91;;;27.34;39.77
15604;BME280;7902;49.042;9.092;2023-06-26T08:14:28;98966.22;;;27.48;40.80
15604;BME280;7902;49.042;9.092;2023-06-26T08:16:54;98963.34;;;27.43;40.18
15604;BME280;7902;49.042;9.092;2023-06-26T08:19:20;98961.00;;;27.28;40.23
15604;BME280;7902;49.042;9.092;2023-06-26T08:21:46;98959.47;;;27.39;40.84
15604;BME280;7902;49.042;9.092;2023-06-26T08:24:12;98956.38;;;27.35;40.51
15604;BME280;7902;49.042;9.092;2023-06-26T08:26:45;98956.38;;;27.35;40.54
15604;BME280;7902;49.042;9.092;2023-06-26T08:29:12;98954.59;;;27.47;40.93
15604;BME280;7902;49.042;9.092;2023-06-26T08:31:38;98946.53;;;27.66;40.20
15604;BME280;7902;49.042;9.092;2023-06-26T08:34:05;98941.09;;;27.72;39.90
15604;BME280;7902;49.042;9.092;2023-06-26T08:36:31;98942.63;;;27.98;39.82
15604;BME280;7902;49.042;9.092;2023-06-26T08:38:58;98952.38;;;27.99;39.81
15604;BME280;7902;49.042;9.092;2023-06-26T08:41:24;98944.50;;;27.98;39.99
15604;BME280;7902;49.042;9.092;2023-06-26T08:43:50;98955.28;;;27.98;39.75
15604;BME280;7902;49.042;9.092;2023-06-26T08:46:18;98949.53;;;27.94;40.21
15604;BME280;7902;49.042;9.092;2023-06-26T08:48:48;98946.25;;;27.92;40.51
15604;BME280;7902;49.042;9.092;2023-06-26T08:51:17;98947.81;;;27.81;40.73
15604;BME280;7902;49.042;9.092;2023-06-26T08:54:00;98950.44;;;28.06;40.02
15604;BME280;7902;49.042;9.092;2023-06-26T08:56:46;98952.19;;;28.30;39.47
15604;BME280;7902;49.042;9.092;2023-06-26T08:59:15;98947.47;;;28.26;39.58
15604;BME280;7902;49.042;9.092;2023-06-26T09:01:41;98952.81;;;28.32;39.53
15604;BME280;7902;49.042;9.092;2023-06-26T09:04:07;98943.94;;;28.44;39.02
15604;BME280;7902;49.042;9.092;2023-06-26T09:06:34;98954.88;;;28.49;38.50
15604;BME280;7902;49.042;9.092;2023-06-26T09:08:59;98949.25;;;28.62;38.53
15604;BME280;7902;49.042;9.092;2023-06-26T09:11:25;98947.75;;;28.66;39.04
15604;BME280;7902;49.042;9.092;2023-06-26T09:13:51;98958.25;;;28.74;38.99
15604;BME280;7902;49.042;9.092;2023-06-26T09:16:17;98949.09;;;28.75;38.95
15604;BME280;7902;49.042;9.092;2023-06-26T09:18:45;98945.63;;;28.68;38.92
15604;BME280;7902;49.042;9.092;2023-06-26T09:21:12;98953.94;;;28.85;38.62
15604;BME280;7902;49.042;9.092;2023-06-26T09:23:40;98959.47;;;28.90;39.00
15604;BME280;7902;49.042;9.092;2023-06-26T09:26:06;98960.53;;;29.00;38.61
15604;BME280;7902;49.042;9.092;2023-06-26T09:28:33;98963.00;;;29.02;38.96
15604;BME280;7902;49.042;9.092;2023-06-26T09:31:02;98968.09;;;29.10;38.34
15604;BME280;7902;49.042;9.092;2023-06-26T09:33:34;98972.66;;;29.09;38.54
15604;BME280;7902;49.042;9.092;2023-06-26T09:36:01;98971.97;;;29.14;38.76
15604;BME280;7902;49.042;9.092;2023-06-26T09:38:30;98971.19;;;29.37;38.39
15604;BME280;7902;49.042;9.092;2023-06-26T09:40:56;98967.72;;;29.18;39.07
15604;BME280;7902;49.042;9.092;2023-06-26T09:43:22;98965.03;;;29.18;39.35
15604;BME280;7902;49.042;9.092;2023-06-26T09:45:48;98973.47;;;29.21;39.23
15604;BME280;7902;49.042;9.092;2023-06-26T09:48:14;98969.25;;;29.26;39.41
15604;BME280;7902;49.042;9.092;2023-06-26T09:50:41;98966.00;;;29.35;39.06
15604;BME280;7902;49.042;9.092;2023-06-26T09:53:08;98971.88;;;29.44;39.22
15604;BME280;7902;49.042;9.092;2023-06-26T09:55:40;98968.81;;;29.52;38.70
15604;BME280;7902;49.042;9.092;2023-06-26T09:58:13;98967.97;;;29.63;38.39
15604;BME280;7902;49.042;9.092;2023-06-26T10:00:41;98964.94;;;29.59;39.15
15604;BME280;7902;49.042;9.092;2023-06-26T10:03:11;98966.22;;;29.57;39.01
15604;BME280;7902;49.042;9.092;2023-06-26T10:05:38;98965.03;;;29.64;38.47
15604;BME280;7902;49.042;9.092;2023-06-26T10:08:05;98972.06;;;29.77;38.46
15604;BME280;7902;49.042;9.092;2023-06-26T10:10:33;98971.13;;;29.83;38.33
15604;BME280;7902;49.042;9.092;2023-06-26T10:13:08;98973.84;;;29.72;39.20
15604;BME280;7902;49.042;9.092;2023-06-26T10:15:37;98969.63;;;29.64;39.10
15604;BME280;7902;49.042;9.092;2023-06-26T10:18:05;98971.41;;;29.47;39.77
15604;BME280;7902;49.042;9.092;2023-06-26T10:20:31;98973.50;;;29.68;39.77
15604;BME280;7902;49.042;9.092;2023-06-26T10:23:00;98975.63;;;29.66;39.53
15604;BME280;7902;49.042;9.092;2023-06-26T10:25:31;98983.28;;;29.57;40.06
15604;BME280;7902;49.042;9.092;2023-06-26T10:27:59;98978.13;;;29.56;40.13
15604;BME280;7902;49.042;9.092;2023-06-26T10:30:33;98967.25;;;29.67;40.40
15604;BME280;7902;49.042;9.092;2023-06-26T10:33:01;98977.97;;;29.62;40.77
15604;BME280;7902;49.042;9.092;2023-06-26T10:35:28;98974.78;;;29.77;40.17
15604;BME280;7902;49.042;9.092;2023-06-26T10:38:00;98977.63;;;29.71;40.16
15604;BME280;7902;49.042;9.092;2023-06-26T10:40:28;98976.22;;;29.80;40.19
15604;BME280;7902;49.042;9.092;2023-06-26T10:43:07;98975.16;;;29.69;40.56
15604;BME280;7902;49.042;9.092;2023-06-26T10:45:43;98983.50;;;29.67;40.32
15604;BME280;7902;49.042;9.092;2023-06-26T10:48:09;98985.16;;;29.69;40.45
15604;BME280;7902;49.042;9.092;2023-06-26T10:50:35;98983.97;;;29.53;40.79
15604;BME280;7902;49.042;9.092;2023-06-26T10:55:58;98974.59;;;29.55;40.67
15604;BME280;7902;49.042;9.092;2023-06-26T11:03:48;98975.84;;;29.76;40.59
15604;BME280;7902;49.042;9.092;2023-06-26T11:06:19;98975.25;;;29.62;40.70
15604;BME280;7902;49.042;9.092;2023-06-26T11:11:12;98977.59;;;29.82;40.69
15604;BME280;7902;49.042;9.092;2023-06-26T11:13:40;98981.13;;;29.83;40.86
15604;BME280;7902;49.042;9.092;2023-06-26T11:16:06;98989.03;;;29.84;40.88
15604;BME280;7902;49.042;9.092;2023-06-26T11:18:32;98982.22;;;29.93;41.24
15604;BME280;7902;49.042;9.092;2023-06-26T11:21:06;98994.88;;;30.04;40.72
15604;BME280;7902;49.042;9.092;2023-06-26T11:23:34;98999.50;;;29.92;41.08
15604;BME280;7902;49.042;9.092;2023-06-26T11:26:17;99006.41;;;30.12;40.55
15604;BME280;7902;49.042;9.092;2023-06-26T11:28:51;99006.41;;;30.12;40.59
15604;BME280;7902;49.042;9.092;2023-06-26T11:31:31;99014.06;;;30.15;40.79
15604;BME280;7902;49.042;9.092;2023-06-26T11:33:58;99021.94;;;30.16;40.66
15604;BME280;7902;49.042;9.092;2023-06-26T11:36:25;99023.59;;;30.17;40.38
15604;BME280;7902;49.042;9.092;2023-06-26T11:38:59;99031.22;;;30.32;40.63
15604;BME280;7902;49.042;9.092;2023-06-26T11:41:29;99024.38;;;30.29;40.41
15604;BME280;7902;49.042;9.092;2023-06-26T11:43:56;99035.44;;;30.39;40.51
15604;BME280;7902;49.042;9.092;2023-06-26T11:46:25;99033.94;;;30.32;40.77
15604;BME280;7902;49.042;9.092;2023-06-26T11:48:51;99035.16;;;30.52;40.29
15604;BME280;7902;49.042;9.092;2023-06-26T11:51:17;99030.50;;;30.36;40.83
15604;BME280;7902;49.042;9.092;2023-06-26T11:53:45;99023.19;;;30.37;40.67
15604;BME280;7902;49.042;9.092;2023-06-26T11:56:12;99019.50;;;30.43;40.99
15604;BME280;7902;49.042;9.092;2023-06-26T12:01:24;99032.94;;;30.38;41.52
15604;BME280;7902;49.042;9.092;2023-06-26T12:03:50;99024.91;;;30.43;40.78
15604;BME280;7902;49.042;9.092;2023-06-26T12:06:16;99025.16;;;30.53;41.00
15604;BME280;7902;49.042;9.092;2023-06-26T12:08:43;99018.19;;;30.57;40.96
15604;BME280;7902;49.042;9.092;2023-06-26T12:11:09;99020.25;;;30.67;41.32
15604;BME280;7902;49.042;9.092;2023-06-26T12:13:35;99018.78;;;30.59;40.89
15604;BME280;7902;49.042;9.092;2023-06-26T12:16:01;99021.78;;;30.74;40.61
15604;BME280;7902;49.042;9.092;2023-06-26T12:18:34;99016.44;;;30.79;40.99
15604;BME280;7902;49.042;9.092;2023-06-26T12:21:00;99015.53;;;30.90;40.46
15604;BME280;7902;49.042;9.092;2023-06-26T12:23:32;99004.69;;;30.90;41.06
15604;BME280;7902;49.042;9.092;2023-06-26T12:25:59;99010.44;;;30.94;40.50
15604;BME280;7902;49.042;9.092;2023-06-26T12:28:25;99018.56;;;31.06;40.38
15604;BME280;7902;49.042;9.092;2023-06-26T12:31:12;99012.97;;;31.12;40.46
15604;BME280;7902;49.042;9.092;2023-06-26T12:33:38;99009.03;;;31.20;40.15
15604;BME280;7902;49.042;9.092;2023-06-26T12:36:04;99010.50;;;31.27;40.42
15604;BME280;7902;49.042;9.092;2023-06-26T12:38:33;99013.47;;;31.26;39.90
15604;BME280;7902;49.042;9.092;2023-06-26T12:40:59;99019.28;;;31.51;39.19
15604;BME280;7902;49.042;9.092;2023-06-26T12:43:26;99019.72;;;31.26;39.78
15604;BME280;7902;49.042;9.092;2023-06-26T12:45:55;99017.22;;;31.42;39.15
15604;BME280;7902;49.042;9.092;2023-06-26T12:48:35;99008.28;;;31.41;39.01
15604;BME280;7902;49.042;9.092;2023-06-26T12:51:12;99014.78;;;31.40;39.51
15604;BME280;7902;49.042;9.092;2023-06-26T12:53:38;99010.34;;;31.34;39.55
15604;BME280;7902;49.042;9.092;2023-06-26T12:56:09;99015.75;;;31.51;38.73
15604;BME280;7902;49.042;9.092;2023-06-26T12:58:35;98997.50;;;31.63;38.69
15604;BME280;7902;49.042;9.092;2023-06-26T13:01:03;99019.63;;;31.71;37.72
15604;BME280;7902;49.042;9.092;2023-06-26T13:03:30;99000.84;;;31.70;37.49
15604;BME280;7902;49.042;9.092;2023-06-26T13:05:55;99007.50;;;31.79;37.98
15604;BME280;7902;49.042;9.092;2023-06-26T13:08:21;99013.53;;;31.64;37.76
15604;BME280;7902;49.042;9.092;2023-06-26T13:10:47;99006.47;;;31.63;37.92
15604;BME280;7902;49.042;9.092;2023-06-26T13:13:13;99000.09;;;31.74;37.80
15604;BME280;7902;49.042;9.092;2023-06-26T13:15:39;98998.59;;;31.84;37.20
15604;BME280;7902;49.042;9.092;2023-06-26T13:18:05;99007.94;;;31.93;36.79
15604;BME280;7902;49.042;9.092;2023-06-26T13:20:31;99000.97;;;31.97;35.55
15604;BME280;7902;49.042;9.092;2023-06-26T13:22:57;99003.78;;;32.07;36.56
15604;BME280;7902;49.042;9.092;2023-06-26T13:25:23;98998.94;;;32.31;36.19
15604;BME280;7902;49.042;9.092;2023-06-26T13:27:49;98996.63;;;32.17;35.84
15604;BME280;7902;49.042;9.092;2023-06-26T13:30:15;99004.72;;;32.34;35.85